Time;durP1;ratioP1;P1;durP2;ratioP2;P2;SDS_P1;SDS_P2;PMS_P1;PMS_P2;Temp;Humidity;BMP_temperature;BMP_pressure;BME280_temperature;BME280_humidity;BME280_pressure;Samples;Min_cycle;Max_cycle;Signal;HPM_P1;HPM_P2
2021/12/26 00:01:01;;;;;;;;;;;0.90;92.50;;;;;;4966818;29;19910;-71
2021/12/26 00:03:28;;;;;;;;;;;1.00;92.00;;;;;;4967544;28;19953;-71
2021/12/26 00:05:54;;;;;;;;;;;0.90;91.50;;;;;;4967424;28;19989;-70
2021/12/26 00:08:20;;;;;;;;;;;1.00;91.70;;;;;;4967738;28;20389;-70
2021/12/26 00:10:48;;;;;;;;;;;0.90;91.70;;;;;;4967507;28;19906;-71
2021/12/26 00:13:15;;;;;;;;;;;0.90;91.70;;;;;;4966462;28;19906;-70
2021/12/26 00:15:41;;;;;;;;;;;0.90;91.60;;;;;;4967311;28;19938;-71
2021/12/26 00:18:09;;;;;;;;;;;0.90;91.30;;;;;;4967509;28;19965;-70
2021/12/26 00:20:35;;;;;;;;;;;0.90;91.40;;;;;;4967277;28;19990;-71
2021/12/26 00:23:00;;;;;;;;;;;0.80;91.50;;;;;;4967280;28;19910;-70
2021/12/26 00:25:26;;;;;;;;;;;0.80;91.40;;;;;;4966925;28;20129;-71
2021/12/26 00:27:52;;;;;;;;;;;0.80;91.60;;;;;;4970757;28;20193;-71
2021/12/26 00:30:18;;;;;;;;;;;0.80;91.40;;;;;;4986724;28;19906;-71
2021/12/26 00:32:44;;;;;;;;;;;0.70;91.30;;;;;;4985889;28;19937;-71
2021/12/26 00:35:10;;;;;;;;;;;0.70;91.50;;;;;;4985843;28;20087;-70
2021/12/26 00:37:36;;;;;;;;;;;0.70;91.60;;;;;;4986463;28;19906;-70
2021/12/26 00:40:03;;;;;;;;;;;0.80;91.70;;;;;;4985142;28;19906;-70
2021/12/26 00:42:28;;;;;;;;;;;0.80;91.40;;;;;;4984964;28;19910;-70
2021/12/26 00:44:54;;;;;;;;;;;0.80;91.50;;;;;;4984706;28;20268;-71
2021/12/26 00:47:19;;;;;;;;;;;0.70;91.50;;;;;;4986308;28;19913;-70
2021/12/26 00:49:45;;;;;;;;;;;0.70;91.60;;;;;;4985810;28;20001;-70
2021/12/26 00:52:11;;;;;;;;;;;0.70;91.80;;;;;;4985721;28;19917;-71
2021/12/26 00:54:36;;;;;;;;;;;0.70;92.20;;;;;;4985878;28;19913;-71
2021/12/26 00:57:03;;;;;;;;;;;0.70;91.90;;;;;;4986102;28;20020;-71
2021/12/26 00:59:28;;;;;;;;;;;0.70;92.10;;;;;;4984959;28;19984;-71
2021/12/26 01:01:54;;;;;;;;;;;0.70;91.90;;;;;;4985618;28;19910;-71
2021/12/26 01:04:20;;;;;;;;;;;0.70;92.40;;;;;;4984696;28;19905;-70
2021/12/26 01:06:46;;;;;;;;;;;0.80;91.80;;;;;;4984710;28;20144;-71
2021/12/26 01:09:16;;;;;;;;;;;0.90;91.90;;;;;;4985960;28;19937;-71
2021/12/26 01:11:48;;;;;;;;;;;0.90;91.60;;;;;;4984591;28;19913;-71
2021/12/26 01:14:14;;;;;;;;;;;0.90;91.10;;;;;;4984563;28;19906;-70
2021/12/26 01:16:40;;;;;;;;;;;0.80;91.30;;;;;;4985785;28;19912;-70
2021/12/26 01:19:11;;;;;;;;;;;0.80;91.60;;;;;;4985612;28;19905;-70
2021/12/26 01:21:37;;;;;;;;;;;0.80;91.80;;;;;;4984262;28;19910;-70
2021/12/26 01:24:06;;;;;;;;;;;0.70;91.30;;;;;;4984611;28;20247;-70
2021/12/26 01:26:32;;;;;;;;;;;0.80;91.40;;;;;;4984272;28;19914;-71
2021/12/26 01:28:58;;;;;;;;;;;0.70;91.70;;;;;;4984540;28;19936;-71
2021/12/26 01:31:24;;;;;;;;;;;0.80;91.70;;;;;;4984288;28;19905;-71
2021/12/26 01:33:52;;;;;;;;;;;0.80;91.90;;;;;;4984631;28;19913;-70
2021/12/26 01:36:18;;;;;;;;;;;0.80;91.70;;;;;;4983550;28;20066;-71
2021/12/26 01:38:44;;;;;;;;;;;0.70;92.00;;;;;;4985423;28;19910;-71
2021/12/26 01:41:10;;;;;;;;;;;0.70;92.10;;;;;;4985277;28;19917;-70
2021/12/26 01:43:40;;;;;;;;;;;0.80;92.20;;;;;;4984019;28;19905;-71
2021/12/26 01:46:06;;;;;;;;;;;0.90;92.00;;;;;;4983522;28;19913;-70
2021/12/26 01:48:31;;;;;;;;;;;0.90;92.10;;;;;;4985096;28;19977;-71
2021/12/26 01:50:57;;;;;;;;;;;0.80;91.70;;;;;;4984606;28;20193;-70
2021/12/26 01:53:24;;;;;;;;;;;0.80;91.60;;;;;;4984814;28;19982;-70
2021/12/26 01:55:51;;;;;;;;;;;0.80;91.70;;;;;;4984855;28;19906;-70
2021/12/26 01:58:22;;;;;;;;;;;0.70;92.00;;;;;;4985013;28;19913;-70
2021/12/26 02:01:05;;;;;;;;;;;0.70;91.90;;;;;;4984929;28;19910;-70
2021/12/26 02:03:31;;;;;;;;;;;0.80;92.10;;;;;;4983510;28;19906;-70
2021/12/26 02:05:56;;;;;;;;;;;0.80;91.70;;;;;;4984392;28;19906;-70
2021/12/26 02:08:22;;;;;;;;;;;0.80;91.80;;;;;;4983564;28;19913;-70
2021/12/26 02:10:48;;;;;;;;;;;0.70;91.90;;;;;;4984869;28;19914;-69
2021/12/26 02:13:13;;;;;;;;;;;0.70;92.00;;;;;;4984566;28;19909;-70
2021/12/26 02:15:39;;;;;;;;;;;0.70;92.10;;;;;;4983328;28;19906;-70
2021/12/26 02:18:06;;;;;;;;;;;0.70;92.00;;;;;;4984589;28;19956;-71
2021/12/26 02:23:14;;;;;;;;;;;0.70;92.00;;;;;;4984435;28;19913;-70
2021/12/26 02:28:15;;;;;;;;;;;0.60;92.50;;;;;;4984577;28;19906;-70
2021/12/26 02:30:40;;;;;;;;;;;0.60;92.50;;;;;;4983348;28;19914;-70
2021/12/26 02:33:10;;;;;;;;;;;0.60;92.50;;;;;;4984147;28;19913;-71
2021/12/26 02:35:37;;;;;;;;;;;0.60;92.60;;;;;;4981521;28;20328;-70
2021/12/26 02:38:02;;;;;;;;;;;0.60;92.60;;;;;;4981969;28;19905;-70
2021/12/26 02:40:28;;;;;;;;;;;0.60;92.60;;;;;;4982843;28;19906;-71
2021/12/26 02:42:54;;;;;;;;;;;0.60;92.60;;;;;;4983806;28;19918;-70
2021/12/26 02:45:19;;;;;;;;;;;0.70;92.60;;;;;;4983735;28;19914;-71
2021/12/26 02:47:47;;;;;;;;;;;0.70;92.40;;;;;;4983186;28;20022;-71
2021/12/26 02:50:23;;;;;;;;;;;0.60;92.70;;;;;;4983588;28;20066;-70
2021/12/26 02:52:49;;;;;;;;;;;0.70;92.70;;;;;;4982717;28;19969;-70
2021/12/26 02:55:16;;;;;;;;;;;0.70;92.50;;;;;;4982448;28;20050;-71
2021/12/26 02:57:46;;;;;;;;;;;0.80;92.40;;;;;;4982231;28;19915;-71
2021/12/26 03:00:13;;;;;;;;;;;0.80;92.60;;;;;;4982688;28;19910;-71
2021/12/26 03:02:40;;;;;;;;;;;0.70;92.20;;;;;;4982661;28;19934;-71
2021/12/26 03:05:06;;;;;;;;;;;0.70;92.50;;;;;;4982111;28;19985;-70
2021/12/26 03:07:32;;;;;;;;;;;0.70;92.40;;;;;;4966521;28;20109;-70
2021/12/26 03:10:00;;;;;;;;;;;0.70;92.40;;;;;;4983972;28;19906;-69
2021/12/26 03:12:27;;;;;;;;;;;0.70;92.40;;;;;;4983679;28;19910;-71
2021/12/26 03:14:52;;;;;;;;;;;0.70;92.70;;;;;;4982479;28;20117;-70
2021/12/26 03:17:18;;;;;;;;;;;0.60;92.70;;;;;;4983966;28;19906;-70
2021/12/26 03:19:44;;;;;;;;;;;0.60;93.00;;;;;;4983402;28;19906;-70
2021/12/26 03:22:09;;;;;;;;;;;0.60;93.00;;;;;;4964140;28;20134;-70
2021/12/26 03:24:37;;;;;;;;;;;0.60;92.90;;;;;;4964263;28;19910;-70
2021/12/26 03:27:04;;;;;;;;;;;0.60;92.90;;;;;;4964562;28;19921;-70
2021/12/26 03:29:30;;;;;;;;;;;0.60;93.20;;;;;;4964523;28;19921;-71
2021/12/26 03:31:55;;;;;;;;;;;0.60;93.10;;;;;;4963092;28;19906;-70
2021/12/26 03:34:21;;;;;;;;;;;0.50;93.30;;;;;;4964195;28;19906;-70
2021/12/26 03:36:51;;;;;;;;;;;0.60;93.20;;;;;;4996300;23;20248;-69
2021/12/26 03:39:16;;;;;;;;;;;0.50;93.20;;;;;;5004320;28;19910;-70
2021/12/26 03:41:42;;;;;;;;;;;0.70;93.00;;;;;;5003513;28;19913;-69
2021/12/26 03:44:08;;;;;;;;;;;0.70;93.10;;;;;;5003788;28;19913;-67
2021/12/26 03:46:33;;;;;;;;;;;0.60;93.10;;;;;;5003962;28;19909;-68
2021/12/26 03:49:04;;;;;;;;;;;0.70;93.20;;;;;;5004145;28;19905;-69
2021/12/26 03:51:29;;;;;;;;;;;0.60;93.10;;;;;;5002060;28;19906;-69
2021/12/26 03:53:55;;;;;;;;;;;0.60;93.40;;;;;;5003485;28;19906;-69
2021/12/26 03:56:21;;;;;;;;;;;0.60;93.50;;;;;;5002928;28;20120;-69
2021/12/26 03:58:46;;;;;;;;;;;0.60;93.10;;;;;;5003229;28;19998;-69
2021/12/26 04:01:12;;;;;;;;;;;0.50;93.40;;;;;;5003160;28;19945;-69
2021/12/26 04:03:38;;;;;;;;;;;0.60;93.30;;;;;;5003254;28;20004;-70
2021/12/26 04:06:04;;;;;;;;;;;0.60;93.50;;;;;;5002937;28;19906;-69
2021/12/26 04:08:29;;;;;;;;;;;0.60;93.40;;;;;;4985677;28;19906;-70
2021/12/26 04:10:55;;;;;;;;;;;0.70;93.20;;;;;;5005574;28;19973;-70
2021/12/26 04:13:21;;;;;;;;;;;0.70;93.10;;;;;;5006479;28;20109;-70
2021/12/26 04:15:46;;;;;;;;;;;0.70;93.10;;;;;;5006102;28;19952;-70
2021/12/26 04:18:12;;;;;;;;;;;0.70;93.10;;;;;;5006386;28;19960;-70
2021/12/26 04:20:38;;;;;;;;;;;0.70;93.10;;;;;;5006194;28;19973;-70
2021/12/26 04:23:04;;;;;;;;;;;0.70;93.10;;;;;;5005080;28;19917;-70
2021/12/26 04:25:29;;;;;;;;;;;0.80;93.10;;;;;;5006168;28;19905;-70
2021/12/26 04:27:55;;;;;;;;;;;0.80;93.10;;;;;;5006358;28;19905;-70
2021/12/26 04:30:21;;;;;;;;;;;0.80;93.20;;;;;;5004942;28;19928;-70
2021/12/26 04:32:47;;;;;;;;;;;0.80;93.20;;;;;;5006201;28;19909;-70
2021/12/26 04:35:13;;;;;;;;;;;0.80;93.50;;;;;;5004826;28;19906;-71
2021/12/26 04:37:39;;;;;;;;;;;0.80;93.30;;;;;;5006197;28;19917;-70
2021/12/26 04:40:07;;;;;;;;;;;0.70;93.40;;;;;;5005615;28;19905;-70
2021/12/26 04:42:33;;;;;;;;;;;0.80;93.40;;;;;;5005861;28;19906;-70
2021/12/26 04:44:58;;;;;;;;;;;0.90;93.30;;;;;;5006415;28;19910;-69
2021/12/26 04:47:24;;;;;;;;;;;0.80;93.00;;;;;;5006732;28;19917;-70
2021/12/26 04:49:50;;;;;;;;;;;0.80;93.10;;;;;;5005991;28;20196;-70
2021/12/26 04:52:15;;;;;;;;;;;0.80;93.40;;;;;;5006255;28;19906;-70
2021/12/26 04:54:41;;;;;;;;;;;0.80;93.60;;;;;;5004989;28;19905;-70
2021/12/26 04:57:07;;;;;;;;;;;0.80;93.50;;;;;;5006118;28;19913;-70
2021/12/26 04:59:32;;;;;;;;;;;0.80;93.60;;;;;;5006124;28;19906;-70
2021/12/26 05:01:58;;;;;;;;;;;0.80;93.30;;;;;;5006074;28;20259;-70
2021/12/26 05:04:24;;;;;;;;;;;0.90;93.30;;;;;;5005067;28;19980;-70
2021/12/26 05:06:50;;;;;;;;;;;0.90;93.40;;;;;;5005983;28;19909;-70
2021/12/26 05:09:15;;;;;;;;;;;0.80;93.40;;;;;;5005171;28;19905;-70
2021/12/26 05:11:41;;;;;;;;;;;0.80;93.60;;;;;;5005631;28;19913;-70
2021/12/26 05:14:07;;;;;;;;;;;0.80;93.70;;;;;;5004413;28;19913;-70
2021/12/26 05:16:32;;;;;;;;;;;0.90;93.40;;;;;;5005340;28;20193;-70
2021/12/26 05:18:58;;;;;;;;;;;0.90;93.30;;;;;;5005686;28;19933;-70
2021/12/26 05:21:24;;;;;;;;;;;1.00;93.40;;;;;;5003161;28;20140;-70
2021/12/26 05:23:49;;;;;;;;;;;1.00;93.00;;;;;;5004435;28;20196;-70
2021/12/26 05:26:15;;;;;;;;;;;0.90;93.60;;;;;;5005189;28;19906;-70
2021/12/26 05:28:41;;;;;;;;;;;1.00;93.20;;;;;;5004922;28;20227;-70
2021/12/26 05:31:06;;;;;;;;;;;1.00;93.10;;;;;;5005407;28;20021;-70
2021/12/26 05:33:32;;;;;;;;;;;1.00;93.00;;;;;;5003977;28;19952;-70
2021/12/26 05:35:59;;;;;;;;;;;1.00;93.00;;;;;;5004714;28;19927;-70
2021/12/26 05:38:26;;;;;;;;;;;1.00;93.10;;;;;;5005047;28;19909;-70
2021/12/26 05:40:53;;;;;;;;;;;1.00;93.20;;;;;;5004247;28;19929;-70
2021/12/26 05:43:18;;;;;;;;;;;1.00;93.10;;;;;;5004842;28;19935;-70
2021/12/26 05:45:44;;;;;;;;;;;1.00;93.20;;;;;;5004147;28;19913;-70
2021/12/26 05:48:10;;;;;;;;;;;0.90;93.20;;;;;;5005734;28;19905;-70
2021/12/26 05:50:35;;;;;;;;;;;0.90;93.20;;;;;;5004678;28;19928;-70
2021/12/26 05:53:01;;;;;;;;;;;0.90;93.40;;;;;;5005618;28;19921;-69
2021/12/26 05:55:28;;;;;;;;;;;0.90;93.50;;;;;;5005175;28;19990;-69
2021/12/26 05:57:54;;;;;;;;;;;0.90;93.50;;;;;;5006824;28;19972;-69
2021/12/26 06:00:20;;;;;;;;;;;0.90;93.50;;;;;;5006232;28;19906;-69
2021/12/26 06:02:46;;;;;;;;;;;0.90;93.60;;;;;;5004042;28;20205;-69
2021/12/26 06:05:12;;;;;;;;;;;0.80;93.60;;;;;;5005075;28;19945;-68
2021/12/26 06:07:37;;;;;;;;;;;0.80;93.70;;;;;;5003938;28;19929;-69
2021/12/26 06:10:06;;;;;;;;;;;0.80;94.10;;;;;;5005242;28;20271;-70
2021/12/26 06:12:32;;;;;;;;;;;0.80;94.30;;;;;;5003320;28;19933;-70
2021/12/26 06:14:58;;;;;;;;;;;0.90;94.20;;;;;;5003425;28;19913;-70
2021/12/26 06:17:23;;;;;;;;;;;0.80;94.40;;;;;;5004047;28;19952;-70
2021/12/26 06:19:49;;;;;;;;;;;0.80;94.50;;;;;;5004169;28;19905;-70
2021/12/26 06:22:16;;;;;;;;;;;0.90;94.20;;;;;;5003764;28;19913;-70
2021/12/26 06:24:42;;;;;;;;;;;0.90;94.10;;;;;;5003515;28;19905;-70
2021/12/26 06:27:08;;;;;;;;;;;1.00;94.00;;;;;;5003156;28;19906;-70
2021/12/26 06:29:34;;;;;;;;;;;0.90;94.10;;;;;;5003198;28;19909;-71
2021/12/26 06:32:00;;;;;;;;;;;0.90;94.20;;;;;;5004261;28;19984;-70
2021/12/26 06:34:25;;;;;;;;;;;0.90;94.40;;;;;;5000772;28;20299;-70
2021/12/26 06:36:51;;;;;;;;;;;1.00;94.10;;;;;;5004189;28;19973;-70
2021/12/26 06:39:18;;;;;;;;;;;1.10;93.70;;;;;;5004783;28;19906;-70
2021/12/26 06:41:43;;;;;;;;;;;1.00;93.70;;;;;;5004285;28;19916;-70
2021/12/26 06:44:09;;;;;;;;;;;1.10;93.70;;;;;;5004176;28;19906;-70
2021/12/26 06:46:35;;;;;;;;;;;1.10;93.60;;;;;;5004297;28;20205;-71
2021/12/26 06:49:01;;;;;;;;;;;1.10;93.70;;;;;;5002894;28;19914;-71
2021/12/26 06:51:27;;;;;;;;;;;1.10;93.60;;;;;;5003131;28;19933;-71
2021/12/26 06:53:52;;;;;;;;;;;1.00;93.70;;;;;;5003014;28;19906;-69
2021/12/26 06:56:18;;;;;;;;;;;1.10;93.60;;;;;;5003575;28;20255;-69
2021/12/26 06:58:44;;;;;;;;;;;1.10;93.70;;;;;;5003996;28;19906;-69
2021/12/26 07:01:10;;;;;;;;;;;1.20;93.50;;;;;;5002503;28;20042;-69
2021/12/26 07:03:36;;;;;;;;;;;1.20;93.50;;;;;;5002542;28;19944;-70
2021/12/26 07:06:02;;;;;;;;;;;1.10;93.50;;;;;;5003282;28;19912;-71
2021/12/26 07:08:28;;;;;;;;;;;1.10;93.60;;;;;;5000892;28;20201;-70
2021/12/26 07:10:53;;;;;;;;;;;1.10;93.90;;;;;;5003580;28;19906;-69
2021/12/26 07:13:19;;;;;;;;;;;1.20;93.70;;;;;;5003356;28;19916;-70
2021/12/26 07:15:45;;;;;;;;;;;1.20;93.80;;;;;;5003181;28;19944;-71
2021/12/26 07:18:10;;;;;;;;;;;1.10;94.00;;;;;;5003361;28;20089;-71
2021/12/26 07:20:37;;;;;;;;;;;1.10;94.10;;;;;;5003334;28;19906;-70
2021/12/26 07:23:03;;;;;;;;;;;1.10;94.30;;;;;;4996982;28;19917;-71
2021/12/26 07:25:29;;;;;;;;;;;1.10;94.60;;;;;;4994747;28;19933;-71
2021/12/26 07:27:55;;;;;;;;;;;1.00;94.50;;;;;;5003484;28;19912;-72
2021/12/26 07:30:21;;;;;;;;;;;1.10;94.50;;;;;;4986782;28;19948;-71
2021/12/26 07:32:46;;;;;;;;;;;1.10;94.40;;;;;;4983740;28;19918;-71
2021/12/26 07:35:12;;;;;;;;;;;1.20;94.20;;;;;;4982035;28;19913;-72
2021/12/26 07:37:38;;;;;;;;;;;1.20;94.10;;;;;;4983425;28;19916;-72
2021/12/26 07:40:05;;;;;;;;;;;1.30;94.10;;;;;;4983818;28;19929;-71
2021/12/26 07:42:31;;;;;;;;;;;1.30;94.10;;;;;;4982309;28;19969;-71
2021/12/26 07:44:56;;;;;;;;;;;1.30;94.20;;;;;;4987455;28;19913;-71
2021/12/26 07:47:22;;;;;;;;;;;1.30;94.10;;;;;;5007451;28;19913;-71
2021/12/26 07:49:48;;;;;;;;;;;1.20;94.40;;;;;;5006017;28;19972;-72
2021/12/26 07:52:18;;;;;;;;;;;1.10;94.80;;;;;;5005733;28;20228;-72
2021/12/26 07:54:45;;;;;;;;;;;1.10;94.90;;;;;;5006113;28;19909;-72
2021/12/26 07:57:11;;;;;;;;;;;1.10;95.10;;;;;;5006709;28;19914;-72
2021/12/26 07:59:37;;;;;;;;;;;1.20;94.60;;;;;;5006713;28;19905;-72
2021/12/26 08:02:03;;;;;;;;;;;1.30;94.40;;;;;;5006805;28;20009;-72
2021/12/26 08:04:29;;;;;;;;;;;1.30;94.60;;;;;;5005557;28;19912;-72
2021/12/26 08:06:55;;;;;;;;;;;1.30;94.70;;;;;;5005172;28;19914;-71
2021/12/26 08:09:21;;;;;;;;;;;1.30;95.00;;;;;;5006758;28;19906;-72
2021/12/26 08:11:46;;;;;;;;;;;1.40;94.70;;;;;;5006409;28;19977;-71
2021/12/26 08:14:12;;;;;;;;;;;1.40;94.70;;;;;;5006446;28;19971;-72
2021/12/26 08:16:38;;;;;;;;;;;1.40;94.70;;;;;;5006228;28;19973;-71
2021/12/26 08:19:06;;;;;;;;;;;1.30;94.60;;;;;;5006661;28;19932;-71
2021/12/26 08:21:33;;;;;;;;;;;1.30;94.90;;;;;;5006083;28;19952;-71
2021/12/26 08:23:59;;;;;;;;;;;1.30;94.80;;;;;;5006555;28;19944;-71
2021/12/26 08:26:24;;;;;;;;;;;1.40;94.80;;;;;;5006079;28;20205;-74
2021/12/26 08:28:50;;;;;;;;;;;1.40;94.90;;;;;;5006465;28;19933;-71
2021/12/26 08:31:17;;;;;;;;;;;1.40;94.70;;;;;;4999094;28;19912;-71
2021/12/26 08:33:43;;;;;;;;;;;1.40;94.70;;;;;;4998359;28;20019;-72
2021/12/26 08:36:09;;;;;;;;;;;1.40;94.70;;;;;;5004281;28;19905;-72
2021/12/26 08:38:34;;;;;;;;;;;1.40;95.00;;;;;;5006444;28;19912;-71
2021/12/26 08:41:00;;;;;;;;;;;1.40;95.10;;;;;;5006250;28;19920;-72
2021/12/26 08:43:26;;;;;;;;;;;1.40;95.10;;;;;;5006411;28;19906;-72
2021/12/26 08:45:52;;;;;;;;;;;1.40;95.30;;;;;;5004715;28;19912;-72
2021/12/26 08:48:18;;;;;;;;;;;1.30;95.50;;;;;;5006236;28;19905;-71
2021/12/26 08:50:44;;;;;;;;;;;1.40;95.50;;;;;;5006175;28;20197;-71
2021/12/26 08:53:09;;;;;;;;;;;1.40;95.50;;;;;;5004247;28;20252;-72
2021/12/26 08:55:35;;;;;;;;;;;1.40;95.40;;;;;;4988042;28;19912;-68
2021/12/26 08:58:01;;;;;;;;;;;1.50;95.60;;;;;;4985144;28;19913;-68
2021/12/26 09:00:27;;;;;;;;;;;1.50;95.80;;;;;;4991503;28;19909;-67
2021/12/26 09:02:53;;;;;;;;;;;1.60;95.60;;;;;;5005665;28;19916;-69
2021/12/26 09:05:19;;;;;;;;;;;1.70;95.30;;;;;;4997479;28;19910;-78
2021/12/26 09:07:45;;;;;;;;;;;1.90;96.50;;;;;;4985807;28;19912;-78
2021/12/26 09:10:11;;;;;;;;;;;1.90;95.30;;;;;;4988390;28;19914;-79
2021/12/26 09:12:37;;;;;;;;;;;1.80;95.20;;;;;;4984875;28;19961;-78
2021/12/26 09:15:04;;;;;;;;;;;1.70;95.30;;;;;;4984696;28;19906;-78
2021/12/26 09:17:30;;;;;;;;;;;1.80;95.20;;;;;;4952632;28;19906;-77
2021/12/26 09:19:55;;;;;;;;;;;1.80;95.40;;;;;;4985726;28;20238;-77
2021/12/26 09:22:21;;;;;;;;;;;1.80;95.30;;;;;;5004558;28;19918;-78
2021/12/26 09:24:47;;;;;;;;;;;1.80;95.30;;;;;;5004967;28;19912;-78
2021/12/26 09:27:13;;;;;;;;;;;1.80;95.30;;;;;;5005125;28;19906;-79
2021/12/26 09:29:39;;;;;;;;;;;1.80;95.40;;;;;;5001436;28;19949;-71
2021/12/26 09:32:05;;;;;;;;;;;1.80;95.30;;;;;;4991525;28;20197;-74
2021/12/26 09:34:32;;;;;;;;;;;1.80;95.50;;;;;;4985133;28;19906;-75
2021/12/26 09:36:58;;;;;;;;;;;1.90;95.40;;;;;;4983867;28;19938;-74
2021/12/26 09:39:24;;;;;;;;;;;2.00;95.20;;;;;;5045270;23;20231;-77
2021/12/26 09:41:50;;;;;;;;;;;2.00;95.00;;;;;;5040267;28;19909;-77
2021/12/26 09:44:16;;;;;;;;;;;2.00;95.10;;;;;;5016601;28;19944;-78
2021/12/26 09:46:41;;;;;;;;;;;2.10;94.90;;;;;;5024477;28;19905;-77
2021/12/26 09:49:07;;;;;;;;;;;2.10;94.60;;;;;;5008150;28;19905;-75
2021/12/26 09:51:33;;;;;;;;;;;2.10;94.90;;;;;;5004499;28;19909;-76
2021/12/26 09:53:59;;;;;;;;;;;2.10;95.10;;;;;;5002794;28;19973;-75
2021/12/26 09:56:25;;;;;;;;;;;2.20;94.70;;;;;;5002510;28;20216;-76
2021/12/26 09:58:54;;;;;;;;;;;2.30;94.50;;;;;;4978847;28;19964;-76
2021/12/26 10:01:37;;;;;;;;;;;2.40;94.40;;;;;;5002959;28;19910;-76
2021/12/26 10:04:23;;;;;;;;;;;2.40;94.40;;;;;;5001340;28;19906;-76
2021/12/26 10:06:51;;;;;;;;;;;2.50;94.00;;;;;;4996146;28;19918;-75
2021/12/26 10:09:18;;;;;;;;;;;2.40;94.10;;;;;;5000253;28;19929;-74
2021/12/26 10:11:45;;;;;;;;;;;2.40;94.30;;;;;;5004193;28;19905;-73
2021/12/26 10:14:16;;;;;;;;;;;2.40;94.30;;;;;;5003451;28;19909;-72
2021/12/26 10:16:50;;;;;;;;;;;2.40;94.40;;;;;;5019259;28;19910;-74
2021/12/26 10:19:16;;;;;;;;;;;2.30;94.20;;;;;;5002713;28;19905;-73
2021/12/26 10:21:43;;;;;;;;;;;2.30;94.20;;;;;;5004181;28;19963;-73
2021/12/26 10:24:21;;;;;;;;;;;2.30;94.40;;;;;;5003685;28;20271;-73
2021/12/26 10:26:52;;;;;;;;;;;2.40;94.30;;;;;;5003154;28;19906;-73
2021/12/26 10:29:26;;;;;;;;;;;2.40;93.80;;;;;;5003594;28;20264;-73
2021/12/26 10:32:04;;;;;;;;;;;2.40;93.90;;;;;;5003772;28;20262;-73
2021/12/26 10:34:56;;;;;;;;;;;2.30;94.00;;;;;;5003184;28;19917;-74
2021/12/26 10:37:30;;;;;;;;;;;2.30;94.30;;;;;;5002570;28;19995;-75
2021/12/26 10:39:58;;;;;;;;;;;2.30;94.40;;;;;;4998357;28;19960;-77
2021/12/26 10:42:28;;;;;;;;;;;2.20;94.60;;;;;;4987448;28;19910;-75
2021/12/26 10:45:15;;;;;;;;;;;2.30;94.00;;;;;;5011523;28;20090;-75
2021/12/26 10:47:51;;;;;;;;;;;2.20;94.10;;;;;;5003444;28;19905;-76
2021/12/26 10:50:19;;;;;;;;;;;2.20;94.60;;;;;;4987511;28;19912;-75
2021/12/26 10:52:53;;;;;;;;;;;2.20;94.40;;;;;;5002384;28;20241;-75
2021/12/26 10:55:35;;;;;;;;;;;2.20;94.50;;;;;;5001589;28;19905;-74
2021/12/26 10:58:12;;;;;;;;;;;2.30;95.30;;;;;;5003350;28;19968;-75
2021/12/26 11:00:42;;;;;;;;;;;2.30;94.40;;;;;;5003453;28;20315;-75
2021/12/26 11:03:13;;;;;;;;;;;2.30;94.30;;;;;;5002460;28;20216;-77
2021/12/26 11:05:40;;;;;;;;;;;2.30;94.20;;;;;;5002350;28;19906;-75
2021/12/26 11:08:07;;;;;;;;;;;2.30;94.10;;;;;;5003214;28;20112;-74
2021/12/26 11:10:38;;;;;;;;;;;2.30;93.90;;;;;;5001417;28;20089;-74
2021/12/26 11:13:05;;;;;;;;;;;2.30;94.00;;;;;;5002442;28;20197;-76
2021/12/26 11:15:33;;;;;;;;;;;2.30;94.20;;;;;;5003473;28;19914;-76
2021/12/26 11:18:01;;;;;;;;;;;2.30;93.90;;;;;;5003337;28;19906;-77
2021/12/26 11:20:34;;;;;;;;;;;2.30;93.70;;;;;;4988146;28;19909;-76
2021/12/26 11:23:00;;;;;;;;;;;2.30;93.80;;;;;;5007367;28;19910;-77
2021/12/26 11:25:26;;;;;;;;;;;2.30;94.00;;;;;;5006187;28;19905;-75
2021/12/26 11:27:52;;;;;;;;;;;2.30;93.70;;;;;;5022528;28;19917;-76
2021/12/26 11:30:18;;;;;;;;;;;2.30;93.90;;;;;;4989876;28;19960;-78
2021/12/26 11:32:44;;;;;;;;;;;2.30;93.40;;;;;;4987698;28;19948;-80
2021/12/26 11:35:10;;;;;;;;;;;2.30;93.40;;;;;;4989238;28;20256;-82
2021/12/26 11:37:37;;;;;;;;;;;2.30;93.60;;;;;;4973134;28;19913;-80
2021/12/26 11:40:05;;;;;;;;;;;2.30;93.70;;;;;;4989346;28;19906;-80
2021/12/26 11:42:33;;;;;;;;;;;2.30;93.90;;;;;;4974285;28;19910;-82
2021/12/26 11:45:22;;;;;;;;;;;2.30;94.10;;;;;;5002904;28;19932;-81
2021/12/26 11:48:36;;;;;;;;;;;2.40;94.20;;;;;;5009424;28;19906;-81
2021/12/26 11:51:20;;;;;;;;;;;2.40;93.90;;;;;;5009465;28;19906;-81
2021/12/26 11:54:15;;;;;;;;;;;2.50;93.60;;;;;;4991420;28;19906;-80
2021/12/26 11:56:57;;;;;;;;;;;2.50;93.30;;;;;;5008371;28;19906;-79
2021/12/26 11:59:47;;;;;;;;;;;2.40;93.20;;;;;;5009878;28;19918;-80
2021/12/26 12:02:32;;;;;;;;;;;2.50;93.40;;;;;;5010094;28;19913;-81
2021/12/26 12:05:22;;;;;;;;;;;2.50;93.20;;;;;;5009490;28;19937;-81
2021/12/26 12:07:56;;;;;;;;;;;2.50;93.40;;;;;;5009593;28;19913;-82
2021/12/26 12:10:34;;;;;;;;;;;2.50;93.30;;;;;;5007966;28;20195;-81
2021/12/26 12:13:00;;;;;;;;;;;2.50;93.50;;;;;;5010305;28;20112;-82
2021/12/26 12:15:50;;;;;;;;;;;2.50;92.90;;;;;;4992217;28;20112;-81
2021/12/26 12:18:22;;;;;;;;;;;2.50;93.10;;;;;;4994478;28;19940;-82
2021/12/26 12:21:15;;;;;;;;;;;2.50;93.30;;;;;;5008500;28;19905;-80
2021/12/26 12:24:10;;;;;;;;;;;2.50;93.10;;;;;;4988556;28;19912;-82
2021/12/26 12:26:54;;;;;;;;;;;2.50;93.20;;;;;;4988962;28;19906;-85
2021/12/26 12:29:29;;;;;;;;;;;2.40;93.30;;;;;;5025309;28;19905;-85
2021/12/26 12:32:07;;;;;;;;;;;2.50;93.50;;;;;;5009852;28;19944;-85
2021/12/26 12:34:47;;;;;;;;;;;2.50;93.50;;;;;;5009327;28;20180;-85
2021/12/26 12:37:27;;;;;;;;;;;2.50;93.30;;;;;;5009181;28;19910;-83
2021/12/26 12:40:06;;;;;;;;;;;2.50;93.10;;;;;;5008944;28;19972;-82
2021/12/26 12:42:34;;;;;;;;;;;2.40;93.60;;;;;;5009384;28;19921;-84
2021/12/26 12:45:00;;;;;;;;;;;2.50;93.70;;;;;;4990138;28;19912;-85
2021/12/26 12:47:26;;;;;;;;;;;2.50;93.30;;;;;;5007090;28;19909;-85
2021/12/26 12:49:57;;;;;;;;;;;2.60;93.20;;;;;;4990532;28;19905;-80
2021/12/26 12:52:49;;;;;;;;;;;2.70;93.10;;;;;;4997204;28;19937;-82
2021/12/26 12:55:20;;;;;;;;;;;2.70;92.70;;;;;;5021735;28;19905;-80
2021/12/26 12:57:50;;;;;;;;;;;2.70;92.50;;;;;;4990413;28;19918;-81
2021/12/26 13:00:25;;;;;;;;;;;2.70;92.60;;;;;;5006919;28;19912;-83
2021/12/26 13:02:51;;;;;;;;;;;2.70;92.90;;;;;;4993991;28;19914;-81
2021/12/26 13:05:34;;;;;;;;;;;2.70;92.70;;;;;;4979618;28;19929;-83
2021/12/26 13:08:11;;;;;;;;;;;2.60;92.70;;;;;;5005332;28;19952;-80
2021/12/26 13:10:36;;;;;;;;;;;2.60;92.80;;;;;;4987340;28;19909;-82
2021/12/26 13:13:06;;;;;;;;;;;2.60;92.70;;;;;;4986303;28;19972;-82
2021/12/26 13:15:32;;;;;;;;;;;2.60;92.60;;;;;;4986576;28;19906;-81
2021/12/26 13:18:05;;;;;;;;;;;2.60;92.60;;;;;;4988301;28;19905;-81
2021/12/26 13:20:32;;;;;;;;;;;2.50;92.70;;;;;;5008824;28;19910;-82
2021/12/26 13:22:58;;;;;;;;;;;2.50;92.80;;;;;;4994596;28;19949;-81
2021/12/26 13:25:37;;;;;;;;;;;2.50;92.90;;;;;;5028852;28;19906;-83
2021/12/26 13:28:26;;;;;;;;;;;2.50;92.90;;;;;;5010652;28;19910;-80
2021/12/26 13:31:12;;;;;;;;;;;2.40;92.90;;;;;;4987329;28;20201;-80
2021/12/26 13:33:38;;;;;;;;;;;2.40;93.20;;;;;;5000029;28;19913;-81
2021/12/26 13:36:27;;;;;;;;;;;2.50;93.60;;;;;;5004753;28;19909;-81
2021/12/26 13:38:54;;;;;;;;;;;2.50;93.30;;;;;;5004267;28;19941;-82
2021/12/26 13:41:22;;;;;;;;;;;2.50;93.10;;;;;;4988626;28;20300;-81
2021/12/26 13:43:48;;;;;;;;;;;2.40;93.20;;;;;;4988067;28;19913;-83
2021/12/26 13:46:19;;;;;;;;;;;2.40;93.00;;;;;;4988243;28;19928;-84
2021/12/26 13:48:47;;;;;;;;;;;2.40;93.10;;;;;;4988457;28;19960;-83
2021/12/26 13:51:30;;;;;;;;;;;2.40;93.20;;;;;;4988210;28;19906;-83
2021/12/26 13:54:06;;;;;;;;;;;2.40;93.20;;;;;;4970061;28;19929;-83
2021/12/26 13:56:51;;;;;;;;;;;2.40;93.10;;;;;;4970062;28;20021;-84
2021/12/26 13:59:32;;;;;;;;;;;2.40;93.20;;;;;;4985931;28;19913;-84
2021/12/26 14:02:31;;;;;;;;;;;2.50;93.20;;;;;;4985816;28;19910;-84
2021/12/26 14:05:00;;;;;;;;;;;2.50;93.30;;;;;;4986093;28;19906;-81
2021/12/26 14:07:28;;;;;;;;;;;2.40;93.20;;;;;;5004950;28;20184;-79
2021/12/26 14:09:55;;;;;;;;;;;2.40;93.10;;;;;;4976163;28;19910;-85
2021/12/26 14:12:42;;;;;;;;;;;2.50;94.10;;;;;;4980534;28;19913;-84
2021/12/26 14:18:17;;;;;;;;;;;2.40;93.20;;;;;;5009454;28;19944;-83
2021/12/26 14:20:49;;;;;;;;;;;2.40;93.40;;;;;;5004189;28;19947;-83
2021/12/26 14:23:28;;;;;;;;;;;2.30;93.50;;;;;;4989761;28;19938;-84
2021/12/26 14:25:56;;;;;;;;;;;2.30;93.40;;;;;;5015232;28;19929;-83
2021/12/26 14:28:22;;;;;;;;;;;2.30;93.60;;;;;;5018352;28;19912;-83
2021/12/26 14:30:48;;;;;;;;;;;2.30;93.70;;;;;;5017872;28;19982;-82
2021/12/26 14:33:15;;;;;;;;;;;2.30;93.50;;;;;;4987700;28;19914;-81
2021/12/26 14:35:42;;;;;;;;;;;2.30;93.20;;;;;;5004644;28;19905;-82
2021/12/26 14:38:15;;;;;;;;;;;2.30;93.40;;;;;;4987464;28;19915;-83
2021/12/26 14:40:55;;;;;;;;;;;2.30;93.60;;;;;;5003708;28;19910;-86
2021/12/26 14:43:21;;;;;;;;;;;2.30;93.70;;;;;;5003733;28;19910;-85
2021/12/26 14:45:49;;;;;;;;;;;2.30;93.40;;;;;;5002730;28;19948;-86
2021/12/26 14:48:36;;;;;;;;;;;2.20;93.50;;;;;;5003195;28;20193;-85